createdAt,value
2022-09-06T00:01:27.545Z,100.00
2022-09-06T00:03:55.563Z,100.00
2022-09-06T00:06:23.614Z,100.00
2022-09-06T00:08:51.677Z,100.00
2022-09-06T00:11:20.508Z,100.00
2022-09-06T00:13:48.916Z,100.00
2022-09-06T00:16:18.973Z,100.00
2022-09-06T00:18:48.457Z,100.00
2022-09-06T00:21:19.136Z,100.00
2022-09-06T00:23:47.470Z,100.00
2022-09-06T00:26:15.874Z,100.00
2022-09-06T00:28:44.316Z,100.00
2022-09-06T00:31:14.080Z,100.00
2022-09-06T00:33:42.360Z,100.00
2022-09-06T00:36:13.364Z,100.00
2022-09-06T00:38:42.536Z,100.00
2022-09-06T00:41:13.264Z,100.00
2022-09-06T00:43:42.061Z,100.00
2022-09-06T00:46:14.665Z,100.00
2022-09-06T00:48:44.097Z,100.00
2022-09-06T00:51:15.648Z,100.00
2022-09-06T00:53:44.206Z,100.00
2022-09-06T00:56:12.647Z,100.00
2022-09-06T00:58:41.098Z,100.00
2022-09-06T01:01:09.187Z,100.00
2022-09-06T01:03:38.099Z,100.00
2022-09-06T01:06:24.520Z,100.00
2022-09-06T01:09:02.868Z,100.00
2022-09-06T01:11:46.032Z,100.00
2022-09-06T01:14:30.556Z,100.00
2022-09-06T01:17:08.547Z,100.00
2022-09-06T01:20:10.051Z,100.00
2022-09-06T01:23:06.965Z,100.00
2022-09-06T01:25:39.582Z,100.00
2022-09-06T01:28:32.326Z,100.00
2022-09-06T01:31:13.533Z,100.00
2022-09-06T01:33:48.914Z,100.00
2022-09-06T01:36:21.769Z,100.00
2022-09-06T01:38:50.149Z,100.00
2022-09-06T01:41:18.217Z,100.00
2022-09-06T01:43:51.779Z,100.00
2022-09-06T01:46:28.366Z,100.00
2022-09-06T01:49:11.861Z,100.00
2022-09-06T01:51:52.847Z,100.00
2022-09-06T01:54:32.480Z,100.00
2022-09-06T01:57:09.618Z,100.00
2022-09-06T02:00:02.548Z,100.00
2022-09-06T02:02:51.840Z,100.00
2022-09-06T02:05:25.063Z,100.00
2022-09-06T02:07:57.659Z,100.00
2022-09-06T02:10:31.201Z,100.00
2022-09-06T02:13:02.179Z,100.00
2022-09-06T02:15:35.363Z,100.00
2022-09-06T02:18:07.231Z,100.00
2022-09-06T02:20:39.232Z,100.00
2022-09-06T02:23:08.567Z,100.00
2022-09-06T02:25:40.217Z,100.00
2022-09-06T02:28:09.846Z,100.00
2022-09-06T02:30:41.288Z,100.00
2022-09-06T02:33:13.448Z,100.00
2022-09-06T02:35:47.130Z,100.00
2022-09-06T02:38:15.968Z,100.00
2022-09-06T02:40:45.259Z,100.00
2022-09-06T02:43:13.605Z,100.00
2022-09-06T02:45:42.953Z,100.00
2022-09-06T02:48:11.037Z,100.00
2022-09-06T02:50:39.032Z,100.00
2022-09-06T02:53:09.455Z,100.00
2022-09-06T02:55:38.123Z,100.00
2022-09-06T02:58:08.131Z,100.00
2022-09-06T03:00:36.524Z,100.00
2022-09-06T03:03:06.112Z,100.00
2022-09-06T03:05:34.299Z,100.00
2022-09-06T03:08:02.554Z,100.00
2022-09-06T03:10:30.876Z,100.00
2022-09-06T03:12:58.945Z,100.00
2022-09-06T03:15:26.952Z,100.00
2022-09-06T03:17:58.536Z,100.00
2022-09-06T03:20:27.951Z,100.00
2022-09-06T03:22:56.141Z,100.00
2022-09-06T03:25:25.542Z,100.00
2022-09-06T03:27:53.690Z,100.00
2022-09-06T03:30:21.741Z,100.00
2022-09-06T03:32:49.781Z,100.00
2022-09-06T03:35:17.890Z,100.00
2022-09-06T03:37:47.172Z,100.00
2022-09-06T03:40:15.198Z,100.00
2022-09-06T03:42:43.266Z,100.00
2022-09-06T03:45:11.658Z,100.00
2022-09-06T03:47:39.864Z,100.00
2022-09-06T03:50:09.344Z,100.00
2022-09-06T03:52:37.310Z,100.00
2022-09-06T03:55:08.163Z,100.00
2022-09-06T03:57:36.237Z,100.00
2022-09-06T04:00:05.547Z,100.00
2022-09-06T04:02:39.449Z,100.00
2022-09-06T04:05:08.179Z,100.00
2022-09-06T04:07:37.896Z,100.00
2022-09-06T04:10:08.644Z,100.00
2022-09-06T04:12:36.713Z,100.00
2022-09-06T04:15:06.826Z,100.00
2022-09-06T04:17:34.898Z,100.00
2022-09-06T04:20:03.936Z,100.00
2022-09-06T04:22:32.212Z,100.00
2022-09-06T04:25:01.342Z,100.00
2022-09-06T04:27:30.911Z,100.00
2022-09-06T04:29:58.802Z,100.00
2022-09-06T04:32:26.907Z,100.00
2022-09-06T04:34:54.926Z,100.00
2022-09-06T04:37:23.133Z,100.00
2022-09-06T04:39:51.318Z,100.00
2022-09-06T04:42:19.595Z,100.00
2022-09-06T04:44:49.132Z,100.00
2022-09-06T04:47:19.142Z,100.00
2022-09-06T04:49:48.162Z,100.00
2022-09-06T04:52:16.350Z,100.00
2022-09-06T04:54:44.522Z,100.00
2022-09-06T04:57:12.609Z,100.00
2022-09-06T04:59:40.722Z,100.00
2022-09-06T05:02:10.161Z,100.00
2022-09-06T05:04:38.150Z,100.00
2022-09-06T05:07:08.060Z,100.00
2022-09-06T05:09:36.783Z,100.00
2022-09-06T05:12:04.996Z,100.00
2022-09-06T05:14:33.001Z,100.00
2022-09-06T05:17:00.996Z,100.00
2022-09-06T05:19:30.357Z,100.00
2022-09-06T05:21:58.438Z,100.00
2022-09-06T05:24:26.495Z,100.00
2022-09-06T05:26:54.635Z,100.00
2022-09-06T05:29:22.650Z,100.00
2022-09-06T05:31:51.124Z,100.00
2022-09-06T05:34:19.335Z,100.00
2022-09-06T05:36:48.716Z,100.00
2022-09-06T05:39:19.057Z,100.00
2022-09-06T05:41:47.050Z,100.00
2022-09-06T05:44:15.098Z,100.00
2022-09-06T05:46:45.116Z,100.00
2022-09-06T05:49:14.185Z,100.00
2022-09-06T05:51:42.368Z,100.00
2022-09-06T05:54:12.972Z,100.00
2022-09-06T05:56:40.978Z,100.00
2022-09-06T05:59:09.121Z,100.00
2022-09-06T06:01:37.236Z,100.00
2022-09-06T06:04:07.955Z,100.00
2022-09-06T06:06:36.167Z,100.00
2022-09-06T06:09:04.473Z,100.00
2022-09-06T06:11:33.942Z,100.00
2022-09-06T06:14:03.420Z,100.00
2022-09-06T06:16:31.848Z,100.00
2022-09-06T06:19:00.198Z,100.00
2022-09-06T06:21:30.542Z,100.00
2022-09-06T06:24:00.283Z,100.00
2022-09-06T06:26:31.146Z,100.00
2022-09-06T06:29:02.065Z,100.00
2022-09-06T06:31:31.545Z,100.00
2022-09-06T06:34:02.729Z,100.00
2022-09-06T06:36:33.647Z,100.00
2022-09-06T06:39:03.276Z,100.00
2022-09-06T06:41:33.166Z,100.00
2022-09-06T06:44:04.399Z,100.00
2022-09-06T06:46:34.027Z,100.00
2022-09-06T06:49:02.258Z,100.00
2022-09-06T06:51:32.348Z,100.00
2022-09-06T06:54:00.610Z,100.00
2022-09-06T06:56:30.588Z,100.00
2022-09-06T06:59:00.361Z,100.00
2022-09-06T07:01:32.473Z,100.00
2022-09-06T07:04:01.052Z,100.00
2022-09-06T07:09:19.222Z,100.00
2022-09-06T07:11:48.737Z,100.00
2022-09-06T07:14:16.952Z,100.00
2022-09-06T07:16:46.805Z,100.00
2022-09-06T07:22:05.330Z,100.00
2022-09-06T07:24:33.934Z,100.00
2022-09-06T07:29:49.915Z,100.00
2022-09-06T07:32:19.300Z,100.00
2022-09-06T07:34:47.615Z,100.00
2022-09-06T07:37:15.900Z,100.00
2022-09-06T07:39:44.232Z,100.00
2022-09-06T07:42:12.433Z,100.00
2022-09-06T07:44:40.527Z,100.00
2022-09-06T07:55:35.799Z,100.00
2022-09-06T07:58:03.831Z,92.95
2022-09-06T08:00:32.797Z,97.02
2022-09-06T08:03:00.888Z,91.11
2022-09-06T08:11:07.571Z,92.47
2022-09-06T08:13:35.773Z,89.89
2022-09-06T08:16:06.700Z,87.72
2022-09-06T08:18:35.534Z,87.11
2022-09-06T08:21:12.576Z,88.18
2022-09-06T08:23:43.624Z,91.09
2022-09-06T08:26:11.991Z,89.10
2022-09-06T08:28:40.104Z,75.73
2022-09-06T08:31:09.901Z,76.37
2022-09-06T08:33:38.689Z,75.52
2022-09-06T08:36:09.462Z,74.54
2022-09-06T08:38:37.455Z,76.10
2022-09-06T08:41:11.417Z,75.15
2022-09-06T08:43:40.140Z,68.14
2022-09-06T08:46:10.461Z,69.81
2022-09-06T08:48:39.923Z,71.10
2022-09-06T08:51:30.148Z,70.94
2022-09-06T08:54:06.817Z,70.78
2022-09-06T08:56:43.429Z,71.34
2022-09-06T08:59:17.511Z,67.99
2022-09-06T09:01:57.577Z,64.10
2022-09-06T09:04:29.636Z,62.58
2022-09-06T09:07:05.934Z,60.60
2022-09-06T09:09:35.805Z,64.92
2022-09-06T09:12:04.090Z,69.33
2022-09-06T09:14:37.963Z,62.33
2022-09-06T09:17:11.426Z,63.90
2022-09-06T09:19:42.458Z,60.54
2022-09-06T09:22:14.097Z,61.46
2022-09-06T09:24:42.503Z,54.43
2022-09-06T09:27:13.354Z,53.04
2022-09-06T09:32:49.983Z,53.33
2022-09-06T09:35:20.521Z,52.82
2022-09-06T09:37:59.056Z,53.69
2022-09-06T09:40:35.783Z,44.89
2022-09-06T09:43:17.377Z,43.96
2022-09-06T09:45:46.396Z,42.81
2022-09-06T09:48:20.176Z,46.39
2022-09-06T09:50:49.003Z,44.10
2022-09-06T09:53:21.465Z,43.86
2022-09-06T09:55:50.515Z,43.85
2022-09-06T09:58:34.200Z,41.49
2022-09-06T10:01:19.546Z,42.31
2022-09-06T10:09:34.773Z,40.75
2022-09-06T10:12:03.327Z,40.11
2022-09-06T10:14:33.560Z,40.57
2022-09-06T10:17:01.617Z,40.97
2022-09-06T10:19:44.067Z,40.21
2022-09-06T10:22:30.428Z,38.63
2022-09-06T10:25:13.407Z,39.72
2022-09-06T10:28:10.587Z,38.39
2022-09-06T10:30:45.828Z,38.19
2022-09-06T10:33:26.274Z,41.14
2022-09-06T10:35:58.191Z,40.36
2022-09-06T10:38:36.341Z,39.69
2022-09-06T10:41:25.053Z,37.51
2022-09-06T10:44:01.981Z,38.64
2022-09-06T10:46:34.132Z,35.83
2022-09-06T10:49:02.220Z,37.45
2022-09-06T10:51:35.594Z,38.06
2022-09-06T10:54:08.510Z,39.69
2022-09-06T10:56:43.249Z,36.54
2022-09-06T10:59:37.439Z,36.21
2022-09-06T11:02:17.655Z,34.80
2022-09-06T11:07:41.748Z,35.18
2022-09-06T11:10:19.449Z,33.77
2022-09-06T11:12:57.205Z,36.01
2022-09-06T11:15:27.842Z,34.35
2022-09-06T11:18:01.556Z,36.75
2022-09-06T11:20:34.982Z,37.96
2022-09-06T11:23:29.026Z,37.25
2022-09-06T11:26:25.056Z,34.21
2022-09-06T11:28:56.356Z,34.60
2022-09-06T11:34:22.135Z,31.90
2022-09-06T11:36:52.594Z,32.80
2022-09-06T11:43:11.753Z,31.82
2022-09-06T11:45:45.464Z,31.21
2022-09-06T11:48:49.146Z,32.76
2022-09-06T11:51:34.058Z,31.07
2022-09-06T11:54:08.670Z,30.17
2022-09-06T11:56:41.803Z,30.70
2022-09-06T11:59:24.283Z,30.40
2022-09-06T12:02:04.330Z,30.55
2022-09-06T12:05:09.788Z,31.15
2022-09-06T12:07:38.960Z,31.31
2022-09-06T12:10:40.208Z,30.36
2022-09-06T12:13:35.912Z,30.22
2022-09-06T12:16:04.106Z,30.20
2022-09-06T12:18:59.684Z,29.25
2022-09-06T12:21:41.231Z,31.03
2022-09-06T12:24:10.292Z,32.63
2022-09-06T12:26:49.713Z,33.45
2022-09-06T12:29:26.067Z,32.21
2022-09-06T12:31:55.874Z,30.21
2022-09-06T12:34:28.018Z,31.13
2022-09-06T12:36:59.153Z,31.24
2022-09-06T12:39:27.778Z,31.28
2022-09-06T12:41:58.199Z,30.57
2022-09-06T12:44:33.383Z,30.95
2022-09-06T12:47:12.598Z,31.62
2022-09-06T12:49:42.087Z,30.14
2022-09-06T12:52:12.686Z,28.59
2022-09-06T12:54:48.619Z,29.95
2022-09-06T12:57:20.578Z,29.45
2022-09-06T12:59:54.635Z,29.57
2022-09-06T13:02:31.304Z,28.22
2022-09-06T13:05:06.353Z,28.44
2022-09-06T13:07:36.221Z,27.89
2022-09-06T13:10:05.080Z,27.76
2022-09-06T13:12:34.141Z,27.47
2022-09-06T13:15:06.083Z,27.77
2022-09-06T13:17:35.527Z,29.05
2022-09-06T13:20:13.871Z,28.64
2022-09-06T13:22:44.675Z,28.25
2022-09-06T13:25:23.476Z,27.06
2022-09-06T13:27:57.467Z,27.62
2022-09-06T13:30:38.518Z,28.17
2022-09-06T13:33:08.066Z,27.87
2022-09-06T13:35:39.456Z,28.10
2022-09-06T13:38:30.683Z,27.85
2022-09-06T13:41:16.728Z,29.19
2022-09-06T13:43:47.655Z,29.18
2022-09-06T13:46:16.039Z,28.65
2022-09-06T13:48:45.037Z,31.15
2022-09-06T13:51:14.551Z,32.46
2022-09-06T13:53:42.823Z,33.82
2022-09-06T13:56:11.910Z,33.87
2022-09-06T13:58:39.927Z,34.59
2022-09-06T14:01:09.783Z,32.79
2022-09-06T14:03:41.679Z,31.73
2022-09-06T14:06:10.943Z,30.17
2022-09-06T14:11:28.547Z,28.45
2022-09-06T14:13:56.633Z,29.36
2022-09-06T14:16:25.226Z,28.49
2022-09-06T14:18:53.402Z,31.85
2022-09-06T14:21:21.543Z,32.84
2022-09-06T14:23:52.648Z,33.74
2022-09-06T14:26:22.093Z,34.58
2022-09-06T14:28:51.080Z,34.55
2022-09-06T14:31:21.742Z,35.96
2022-09-06T14:33:50.308Z,36.53
2022-09-06T14:36:20.167Z,38.02
2022-09-06T14:38:49.161Z,38.14
2022-09-06T14:41:19.433Z,35.50
2022-09-06T14:43:50.377Z,34.43
2022-09-06T14:46:19.532Z,32.25
2022-09-06T14:48:48.012Z,32.15
2022-09-06T14:51:20.740Z,30.63
2022-09-06T14:53:50.610Z,30.53
2022-09-06T14:56:20.936Z,30.27
2022-09-06T14:58:49.017Z,29.36
2022-09-06T15:01:19.492Z,28.67
2022-09-06T15:03:51.509Z,28.56
2022-09-06T15:06:21.697Z,28.72
2022-09-06T15:08:50.376Z,28.26
2022-09-06T15:11:30.746Z,28.63
2022-09-06T15:14:00.142Z,28.68
2022-09-06T15:16:28.791Z,28.18
2022-09-06T15:18:57.301Z,28.98
2022-09-06T15:21:25.763Z,27.98
2022-09-06T15:23:54.520Z,28.17
2022-09-06T15:26:22.696Z,29.51
2022-09-06T15:28:52.990Z,29.09
2022-09-06T15:31:21.722Z,29.03
2022-09-06T15:33:52.832Z,30.24
2022-09-06T15:36:21.868Z,28.47
2022-09-06T15:38:50.511Z,28.41
2022-09-06T15:41:20.867Z,27.61
2022-09-06T15:43:50.480Z,29.00
2022-09-06T15:46:23.130Z,29.95
2022-09-06T15:48:53.868Z,29.78
2022-09-06T15:51:22.196Z,32.06
2022-09-06T15:53:50.410Z,32.37
2022-09-06T15:56:19.499Z,33.39
2022-09-06T15:58:48.223Z,34.07
2022-09-06T16:01:18.921Z,35.63
2022-09-06T16:03:49.906Z,37.05
2022-09-06T16:08:58.336Z,38.57
2022-09-06T16:11:27.606Z,38.98
2022-09-06T16:13:56.360Z,39.11
2022-09-06T16:16:24.811Z,38.94
2022-09-06T16:18:54.330Z,39.68
2022-09-06T16:21:25.027Z,39.89
2022-09-06T16:23:54.535Z,39.73
2022-09-06T16:26:24.357Z,40.68
2022-09-06T16:28:53.697Z,39.52
2022-09-06T16:31:22.864Z,39.82
2022-09-06T16:33:51.359Z,39.52
2022-09-06T16:36:22.232Z,39.11
2022-09-06T16:38:50.472Z,39.31
2022-09-06T16:41:21.863Z,39.16
2022-09-06T16:43:50.194Z,39.44
2022-09-06T16:46:18.454Z,39.27
2022-09-06T16:48:52.171Z,39.06
2022-09-06T16:51:22.946Z,40.32
2022-09-06T16:53:51.967Z,39.83
2022-09-06T16:56:22.813Z,39.65
2022-09-06T16:58:52.673Z,39.61
2022-09-06T17:01:21.447Z,40.07
2022-09-06T17:03:49.853Z,40.25
2022-09-06T17:06:19.034Z,41.71
2022-09-06T17:08:48.543Z,42.93
2022-09-06T17:11:18.692Z,43.20
2022-09-06T17:13:49.785Z,43.37
2022-09-06T17:16:35.714Z,45.03
2022-09-06T17:19:05.307Z,45.57
2022-09-06T17:21:34.250Z,46.02
2022-09-06T17:24:05.262Z,46.01
2022-09-06T17:26:35.873Z,46.89
2022-09-06T17:29:05.127Z,47.11
2022-09-06T17:31:33.487Z,50.07
2022-09-06T17:34:01.791Z,51.89
2022-09-06T17:36:31.962Z,53.06
2022-09-06T17:39:06.730Z,54.95
2022-09-06T17:41:37.751Z,54.96
2022-09-06T17:44:07.363Z,54.62
2022-09-06T17:46:35.324Z,55.45
2022-09-06T17:49:05.283Z,58.18
2022-09-06T17:51:35.855Z,59.43
2022-09-06T17:54:07.760Z,62.04
2022-09-06T17:56:36.519Z,61.71
2022-09-06T17:59:06.567Z,64.28
2022-09-06T18:01:36.339Z,64.30
2022-09-06T18:04:06.370Z,66.75
2022-09-06T18:06:36.910Z,66.83
2022-09-06T18:09:10.678Z,66.47
2022-09-06T18:11:40.381Z,64.56
2022-09-06T18:14:11.013Z,64.50
2022-09-06T18:16:41.063Z,64.50
2022-09-06T18:19:10.198Z,63.32
2022-09-06T18:21:40.898Z,62.06
2022-09-06T18:24:13.544Z,60.93
2022-09-06T18:26:42.469Z,60.50
2022-09-06T18:29:14.564Z,60.96
2022-09-06T18:31:43.404Z,63.49
2022-09-06T18:34:12.304Z,63.40
2022-09-06T18:36:40.972Z,64.99
2022-09-06T18:39:11.774Z,62.43
2022-09-06T18:41:57.477Z,62.56
2022-09-06T18:44:30.218Z,61.91
2022-09-06T18:47:01.216Z,61.46
2022-09-06T18:49:30.019Z,62.57
2022-09-06T18:51:58.048Z,62.49
2022-09-06T18:54:27.922Z,63.17
2022-09-06T18:56:56.334Z,63.90
2022-09-06T18:59:24.823Z,65.00
2022-09-06T19:01:53.119Z,66.93
2022-09-06T19:04:21.394Z,68.09
2022-09-06T19:06:49.521Z,68.26
2022-09-06T19:09:18.374Z,68.15
2022-09-06T19:11:51.437Z,66.44
2022-09-06T19:14:20.255Z,67.71
2022-09-06T19:16:50.086Z,66.07
2022-09-06T19:19:18.394Z,64.16
2022-09-06T19:21:46.458Z,65.59
2022-09-06T19:24:16.147Z,66.55
2022-09-06T19:26:45.747Z,67.32
2022-09-06T19:29:17.056Z,68.58
2022-09-06T19:31:46.914Z,69.12
2022-09-06T19:34:15.816Z,67.67
2022-09-06T19:36:44.785Z,65.79
2022-09-06T19:39:15.282Z,68.14
2022-09-06T19:41:45.075Z,67.32
2022-09-06T19:44:15.998Z,67.65
2022-09-06T19:46:46.578Z,66.71
2022-09-06T19:49:16.859Z,68.76
2022-09-06T19:51:46.294Z,68.23
2022-09-06T19:54:15.527Z,68.80
2022-09-06T19:56:44.690Z,68.32
2022-09-06T19:59:15.194Z,66.66
2022-09-06T20:01:45.126Z,65.54
2022-09-06T20:04:14.551Z,65.05
2022-09-06T20:06:43.168Z,65.90
2022-09-06T20:09:12.039Z,66.27
2022-09-06T20:11:41.381Z,66.13
2022-09-06T20:14:10.685Z,65.81
2022-09-06T20:16:42.110Z,62.66
2022-09-06T20:19:11.862Z,61.98
2022-09-06T20:21:39.960Z,60.58
2022-09-06T20:24:08.506Z,61.65
2022-09-06T20:26:37.660Z,64.01
2022-09-06T20:29:06.546Z,64.73
2022-09-06T20:31:36.242Z,65.65
2022-09-06T20:34:06.530Z,67.53
2022-09-06T20:36:34.723Z,67.84
2022-09-06T20:39:03.248Z,68.13
2022-09-06T20:41:31.387Z,69.44
2022-09-06T20:44:00.851Z,71.20
2022-09-06T20:46:31.034Z,71.24
2022-09-06T20:49:03.571Z,71.61
2022-09-06T20:51:34.261Z,74.40
2022-09-06T20:54:05.594Z,73.82
2022-09-06T20:56:35.254Z,73.68
2022-09-06T20:59:06.002Z,73.23
2022-09-06T21:01:35.890Z,70.71
2022-09-06T21:04:06.284Z,69.19
2022-09-06T21:06:37.404Z,70.09
2022-09-06T21:09:06.931Z,69.29
2022-09-06T21:11:35.149Z,69.37
2022-09-06T21:14:03.951Z,68.53
2022-09-06T21:16:32.499Z,68.46
2022-09-06T21:19:02.771Z,68.77
2022-09-06T21:21:34.043Z,67.91
2022-09-06T21:24:05.495Z,69.46
2022-09-06T21:26:34.253Z,69.90
2022-09-06T21:29:03.482Z,69.60
2022-09-06T21:31:32.880Z,68.65
2022-09-06T21:34:02.685Z,70.97
2022-09-06T21:36:31.212Z,69.60
2022-09-06T21:39:00.985Z,70.49
2022-09-06T21:41:31.540Z,70.42
2022-09-06T21:44:01.300Z,70.81
2022-09-06T21:46:33.561Z,72.08
2022-09-06T21:49:03.743Z,72.72
2022-09-06T21:51:32.502Z,74.06
2022-09-06T21:54:04.226Z,74.19
2022-09-06T21:56:35.796Z,76.56
2022-09-06T21:59:05.034Z,78.39
2022-09-06T22:01:35.044Z,80.55
2022-09-06T22:04:03.673Z,81.82
2022-09-06T22:06:33.313Z,86.58
2022-09-06T22:09:03.266Z,86.07
2022-09-06T22:11:35.238Z,89.61
2022-09-06T22:14:05.141Z,93.70
2022-09-06T22:16:34.787Z,93.40
2022-09-06T22:19:04.683Z,94.13
2022-09-06T22:21:33.355Z,93.48
2022-09-06T22:24:03.093Z,93.91
2022-09-06T22:26:31.898Z,94.76
2022-09-06T22:29:03.218Z,95.67
2022-09-06T22:31:32.800Z,95.75
2022-09-06T22:34:01.544Z,96.82
2022-09-06T22:36:29.702Z,97.99
2022-09-06T22:38:58.595Z,98.08
2022-09-06T22:41:28.750Z,99.01
2022-09-06T22:43:57.417Z,100.00
2022-09-06T22:46:26.967Z,100.00
2022-09-06T22:48:55.426Z,100.00
2022-09-06T22:51:23.663Z,100.00
2022-09-06T22:53:51.762Z,99.53
2022-09-06T22:56:19.987Z,99.18
2022-09-06T22:58:48.026Z,98.14
2022-09-06T23:01:17.226Z,97.18
2022-09-06T23:03:48.079Z,97.33
2022-09-06T23:06:16.365Z,95.60
2022-09-06T23:08:44.401Z,97.28
2022-09-06T23:11:14.272Z,99.84
2022-09-06T23:13:44.176Z,100.00
2022-09-06T23:16:14.168Z,100.00
2022-09-06T23:18:42.699Z,100.00
2022-09-06T23:21:14.381Z,100.00
2022-09-06T23:23:42.920Z,100.00
2022-09-06T23:26:12.773Z,100.00
2022-09-06T23:28:41.154Z,100.00
2022-09-06T23:31:11.406Z,100.00
2022-09-06T23:33:40.342Z,100.00
2022-09-06T23:36:11.087Z,100.00
2022-09-06T23:38:42.008Z,100.00
2022-09-06T23:41:10.827Z,100.00
2022-09-06T23:43:39.843Z,100.00
2022-09-06T23:46:08.547Z,100.00
2022-09-06T23:48:37.043Z,100.00
2022-09-06T23:51:05.618Z,100.00
2022-09-06T23:53:34.144Z,100.00
2022-09-06T23:56:04.243Z,100.00
2022-09-06T23:58:32.413Z,100.00
